sensor_id;sensor_type;location;lat;lon;timestamp;pressure;altitude;pressure_sealevel;temperature;humidity
22651;BME280;11492;42.646;23.400;2023-06-10T00:02:20;94627.88;;;17.57;81.88
22651;BME280;11492;42.646;23.400;2023-06-10T00:04:45;94627.13;;;17.34;82.33
22651;BME280;11492;42.646;23.400;2023-06-10T00:07:11;94634.84;;;17.41;82.31
22651;BME280;11492;42.646;23.400;2023-06-10T00:09:38;94634.13;;;17.56;82.01
22651;BME280;11492;42.646;23.400;2023-06-10T00:12:04;94639.91;;;17.58;81.42
22651;BME280;11492;42.646;23.400;2023-06-10T00:14:31;94635.97;;;17.56;81.91
22651;BME280;11492;42.646;23.400;2023-06-10T00:16:57;94639.81;;;17.65;81.87
22651;BME280;11492;42.646;23.400;2023-06-10T00:19:22;94635.25;;;17.72;81.08
22651;BME280;11492;42.646;23.400;2023-06-10T00:21:51;94641.59;;;17.75;80.58
22651;BME280;11492;42.646;23.400;2023-06-10T00:24:17;94636.38;;;17.75;80.42
22651;BME280;11492;42.646;23.400;2023-06-10T00:26:42;94633.97;;;17.74;80.97
22651;BME280;11492;42.646;23.400;2023-06-10T00:29:08;94637.97;;;17.76;81.00
22651;BME280;11492;42.646;23.400;2023-06-10T00:31:35;94635.00;;;17.73;81.28
22651;BME280;11492;42.646;23.400;2023-06-10T00:34:01;94640.81;;;17.75;81.51
22651;BME280;11492;42.646;23.400;2023-06-10T00:36:28;94644.56;;;17.68;82.23
22651;BME280;11492;42.646;23.400;2023-06-10T00:38:54;94639.47;;;17.61;82.44
22651;BME280;11492;42.646;23.400;2023-06-10T00:41:19;94634.94;;;17.57;82.34
22651;BME280;11492;42.646;23.400;2023-06-10T00:43:45;94639.47;;;17.61;82.31
22651;BME280;11492;42.646;23.400;2023-06-10T00:46:11;94646.72;;;17.59;82.85
22651;BME280;11492;42.646;23.400;2023-06-10T00:48:39;94643.13;;;17.60;82.25
22651;BME280;11492;42.646;23.400;2023-06-10T00:51:05;94642.53;;;17.58;82.68
22651;BME280;11492;42.646;23.400;2023-06-10T00:53:31;94635.47;;;17.59;83.21
22651;BME280;11492;42.646;23.400;2023-06-10T00:55:57;94637.09;;;17.60;83.56
22651;BME280;11492;42.646;23.400;2023-06-10T00:58:24;94642.09;;;17.39;83.83
22651;BME280;11492;42.646;23.400;2023-06-10T01:00:51;94641.75;;;17.47;84.19
22651;BME280;11492;42.646;23.400;2023-06-10T01:03:17;94639.69;;;17.48;83.40
22651;BME280;11492;42.646;23.400;2023-06-10T01:05:42;94639.81;;;17.53;83.30
22651;BME280;11492;42.646;23.400;2023-06-10T01:10:59;94649.16;;;17.49;83.21
22651;BME280;11492;42.646;23.400;2023-06-10T01:13:26;94638.59;;;17.45;83.75
22651;BME280;11492;42.646;23.400;2023-06-10T01:15:55;94644.03;;;17.43;83.87
22651;BME280;11492;42.646;23.400;2023-06-10T01:18:21;94650.50;;;17.41;84.27
22651;BME280;11492;42.646;23.400;2023-06-10T01:20:47;94648.44;;;17.43;84.87
22651;BME280;11492;42.646;23.400;2023-06-10T01:23:14;94643.13;;;17.38;84.64
22651;BME280;11492;42.646;23.400;2023-06-10T01:25:41;94647.09;;;17.40;84.86
22651;BME280;11492;42.646;23.400;2023-06-10T01:33:36;94649.38;;;17.37;85.49
22651;BME280;11492;42.646;23.400;2023-06-10T01:36:03;94647.31;;;17.39;85.82
22651;BME280;11492;42.646;23.400;2023-06-10T01:38:36;94649.91;;;17.39;86.08
22651;BME280;11492;42.646;23.400;2023-06-10T01:41:03;94649.38;;;17.37;85.98
22651;BME280;11492;42.646;23.400;2023-06-10T01:43:28;94642.56;;;17.36;85.75
22651;BME280;11492;42.646;23.400;2023-06-10T01:45:54;94642.81;;;17.34;86.38
22651;BME280;11492;42.646;23.400;2023-06-10T01:48:19;94645.63;;;17.33;86.02
22651;BME280;11492;42.646;23.400;2023-06-10T01:50:45;94640.19;;;17.34;86.24
22651;BME280;11492;42.646;23.400;2023-06-10T01:53:10;94643.34;;;17.36;86.39
22651;BME280;11492;42.646;23.400;2023-06-10T01:55:36;94633.47;;;17.38;85.93
22651;BME280;11492;42.646;23.400;2023-06-10T01:58:01;94634.84;;;17.41;85.89
22651;BME280;11492;42.646;23.400;2023-06-10T02:00:27;94639.47;;;17.39;85.19
22651;BME280;11492;42.646;23.400;2023-06-10T02:02:53;94634.50;;;17.37;85.67
22651;BME280;11492;42.646;23.400;2023-06-10T02:05:18;94631.09;;;17.37;86.25
22651;BME280;11492;42.646;23.400;2023-06-10T02:07:44;94632.91;;;17.36;85.87
22651;BME280;11492;42.646;23.400;2023-06-10T02:10:09;94631.56;;;17.34;86.11
22651;BME280;11492;42.646;23.400;2023-06-10T02:12:35;94625.22;;;17.30;85.45
22651;BME280;11492;42.646;23.400;2023-06-10T02:15:00;94626.91;;;17.24;85.86
22651;BME280;11492;42.646;23.400;2023-06-10T02:17:26;94624.19;;;17.31;85.81
22651;BME280;11492;42.646;23.400;2023-06-10T02:19:51;94621.13;;;17.22;86.92
22651;BME280;11492;42.646;23.400;2023-06-10T02:22:21;94613.38;;;17.27;86.83
22651;BME280;11492;42.646;23.400;2023-06-10T02:24:46;94618.28;;;17.35;86.47
22651;BME280;11492;42.646;23.400;2023-06-10T02:27:12;94609.75;;;17.40;86.81
22651;BME280;11492;42.646;23.400;2023-06-10T02:29:37;94610.44;;;17.47;86.73
22651;BME280;11492;42.646;23.400;2023-06-10T02:32:03;94607.13;;;17.51;86.22
22651;BME280;11492;42.646;23.400;2023-06-10T02:34:29;94600.88;;;17.52;86.29
22651;BME280;11492;42.646;23.400;2023-06-10T02:36:54;94608.59;;;17.58;85.81
22651;BME280;11492;42.646;23.400;2023-06-10T02:39:21;94606.09;;;17.52;85.54
22651;BME280;11492;42.646;23.400;2023-06-10T02:41:46;94600.13;;;17.40;85.63
22651;BME280;11492;42.646;23.400;2023-06-10T02:44:12;94596.13;;;17.38;84.78
22651;BME280;11492;42.646;23.400;2023-06-10T02:46:37;94600.78;;;17.47;84.80
22651;BME280;11492;42.646;23.400;2023-06-10T02:49:03;94601.81;;;17.46;85.11
22651;BME280;11492;42.646;23.400;2023-06-10T02:51:28;94603.28;;;17.42;84.41
22651;BME280;11492;42.646;23.400;2023-06-10T02:53:53;94599.31;;;17.40;84.72
22651;BME280;11492;42.646;23.400;2023-06-10T02:56:19;94599.97;;;17.47;84.61
22651;BME280;11492;42.646;23.400;2023-06-10T02:58:45;94596.03;;;17.44;84.76
22651;BME280;11492;42.646;23.400;2023-06-10T03:01:11;94597.28;;;17.42;84.69
22651;BME280;11492;42.646;23.400;2023-06-10T03:03:37;94588.09;;;17.39;84.22
22651;BME280;11492;42.646;23.400;2023-06-10T03:06:06;94594.22;;;17.45;84.10
22651;BME280;11492;42.646;23.400;2023-06-10T03:08:31;94595.22;;;17.44;84.09
22651;BME280;11492;42.646;23.400;2023-06-10T03:10:57;94599.44;;;17.11;85.11
22651;BME280;11492;42.646;23.400;2023-06-10T03:13:23;94608.41;;;17.26;85.21
22651;BME280;11492;42.646;23.400;2023-06-10T03:15:49;94601.03;;;17.34;85.16
22651;BME280;11492;42.646;23.400;2023-06-10T03:18:14;94594.09;;;17.40;84.53
22651;BME280;11492;42.646;23.400;2023-06-10T03:20:41;94604.06;;;17.43;84.19
22651;BME280;11492;42.646;23.400;2023-06-10T03:23:07;94596.69;;;17.51;83.73
22651;BME280;11492;42.646;23.400;2023-06-10T03:25:33;94607.47;;;17.54;84.24
22651;BME280;11492;42.646;23.400;2023-06-10T03:27:58;94606.44;;;17.55;83.94
22651;BME280;11492;42.646;23.400;2023-06-10T03:30:24;94609.59;;;17.57;84.09
22651;BME280;11492;42.646;23.400;2023-06-10T03:32:49;94616.56;;;17.41;84.77
22651;BME280;11492;42.646;23.400;2023-06-10T03:35:15;94614.78;;;17.30;84.54
22651;BME280;11492;42.646;23.400;2023-06-10T03:37:40;94626.34;;;17.34;85.60
22651;BME280;11492;42.646;23.400;2023-06-10T03:40:07;94620.66;;;17.37;85.56
22651;BME280;11492;42.646;23.400;2023-06-10T03:42:34;94620.66;;;17.37;84.72
22651;BME280;11492;42.646;23.400;2023-06-10T03:45:00;94625.75;;;17.54;84.64
22651;BME280;11492;42.646;23.400;2023-06-10T03:47:25;94625.03;;;17.59;84.91
22651;BME280;11492;42.646;23.400;2023-06-10T03:49:51;94631.16;;;17.75;85.18
22651;BME280;11492;42.646;23.400;2023-06-10T03:52:17;94630.88;;;17.88;86.44
22651;BME280;11492;42.646;23.400;2023-06-10T03:54:43;94629.97;;;17.94;87.36
22651;BME280;11492;42.646;23.400;2023-06-10T03:57:08;94627.72;;;17.98;87.43
22651;BME280;11492;42.646;23.400;2023-06-10T03:59:33;94635.06;;;18.00;87.74
22651;BME280;11492;42.646;23.400;2023-06-10T04:01:59;94623.38;;;18.03;87.16
22651;BME280;11492;42.646;23.400;2023-06-10T04:04:25;94628.13;;;18.06;87.06
22651;BME280;11492;42.646;23.400;2023-06-10T04:06:50;94616.88;;;18.05;86.63
22651;BME280;11492;42.646;23.400;2023-06-10T04:09:16;94629.03;;;18.11;87.15
22651;BME280;11492;42.646;23.400;2023-06-10T04:11:42;94620.25;;;18.17;87.97
22651;BME280;11492;42.646;23.400;2023-06-10T04:14:08;94626.59;;;18.21;86.49
22651;BME280;11492;42.646;23.400;2023-06-10T04:16:33;94623.13;;;18.32;86.21
22651;BME280;11492;42.646;23.400;2023-06-10T04:19:00;94625.97;;;18.30;85.37
22651;BME280;11492;42.646;23.400;2023-06-10T04:21:26;94637.03;;;18.32;86.14
22651;BME280;11492;42.646;23.400;2023-06-10T04:23:51;94637.22;;;18.31;86.02
22651;BME280;11492;42.646;23.400;2023-06-10T04:26:17;94633.13;;;18.35;86.14
22651;BME280;11492;42.646;23.400;2023-06-10T04:28:43;94641.53;;;18.37;85.36
22651;BME280;11492;42.646;23.400;2023-06-10T04:31:09;94641.06;;;18.40;84.06
22651;BME280;11492;42.646;23.400;2023-06-10T04:33:35;94639.94;;;18.36;83.37
22651;BME280;11492;42.646;23.400;2023-06-10T04:36:01;94639.06;;;18.30;83.30
22651;BME280;11492;42.646;23.400;2023-06-10T04:38:26;94638.50;;;18.28;82.02
22651;BME280;11492;42.646;23.400;2023-06-10T04:40:52;94633.97;;;18.24;82.31
22651;BME280;11492;42.646;23.400;2023-06-10T04:43:17;94631.59;;;18.23;82.23
22651;BME280;11492;42.646;23.400;2023-06-10T04:45:43;94630.72;;;18.17;81.74
22651;BME280;11492;42.646;23.400;2023-06-10T04:48:10;94638.78;;;18.16;81.93
22651;BME280;11492;42.646;23.400;2023-06-10T04:50:36;94635.94;;;18.17;82.54
22651;BME280;11492;42.646;23.400;2023-06-10T04:53:01;94636.41;;;18.14;82.89
22651;BME280;11492;42.646;23.400;2023-06-10T04:55:27;94633.09;;;18.19;82.66
22651;BME280;11492;42.646;23.400;2023-06-10T04:57:52;94632.31;;;18.18;82.59
22651;BME280;11492;42.646;23.400;2023-06-10T05:00:18;94640.50;;;18.10;82.94
22651;BME280;11492;42.646;23.400;2023-06-10T05:02:43;94636.25;;;18.21;83.29
22651;BME280;11492;42.646;23.400;2023-06-10T05:05:10;94630.56;;;18.23;82.64
22651;BME280;11492;42.646;23.400;2023-06-10T05:07:36;94631.72;;;18.16;82.81
22651;BME280;11492;42.646;23.400;2023-06-10T05:10:01;94627.63;;;18.20;82.20
22651;BME280;11492;42.646;23.400;2023-06-10T05:12:28;94628.84;;;18.29;81.91
22651;BME280;11492;42.646;23.400;2023-06-10T05:14:53;94623.22;;;18.37;81.62
22651;BME280;11492;42.646;23.400;2023-06-10T05:17:19;94633.31;;;18.45;80.55
22651;BME280;11492;42.646;23.400;2023-06-10T05:19:44;94626.50;;;18.44;81.22
22651;BME280;11492;42.646;23.400;2023-06-10T05:22:10;94627.69;;;18.52;81.33
22651;BME280;11492;42.646;23.400;2023-06-10T05:24:35;94628.81;;;18.56;80.49
22651;BME280;11492;42.646;23.400;2023-06-10T05:27:00;94628.69;;;18.35;80.71
22651;BME280;11492;42.646;23.400;2023-06-10T05:29:26;94620.59;;;18.37;81.02
22651;BME280;11492;42.646;23.400;2023-06-10T05:31:52;94628.09;;;18.45;81.33
22651;BME280;11492;42.646;23.400;2023-06-10T05:34:17;94622.06;;;18.44;81.86
22651;BME280;11492;42.646;23.400;2023-06-10T05:36:43;94628.97;;;18.50;81.32
22651;BME280;11492;42.646;23.400;2023-06-10T05:39:09;94629.28;;;18.53;81.84
22651;BME280;11492;42.646;23.400;2023-06-10T05:41:35;94630.38;;;18.57;81.83
22651;BME280;11492;42.646;23.400;2023-06-10T05:44:00;94631.25;;;18.47;81.89
22651;BME280;11492;42.646;23.400;2023-06-10T05:46:26;94630.88;;;18.54;82.42
22651;BME280;11492;42.646;23.400;2023-06-10T05:48:51;94637.63;;;18.67;82.24
22651;BME280;11492;42.646;23.400;2023-06-10T05:51:16;94639.06;;;18.74;81.93
22651;BME280;11492;42.646;23.400;2023-06-10T05:53:42;94624.78;;;18.65;82.01
22651;BME280;11492;42.646;23.400;2023-06-10T05:56:07;94642.78;;;18.78;81.66
22651;BME280;11492;42.646;23.400;2023-06-10T05:58:33;94643.72;;;18.72;81.97
22651;BME280;11492;42.646;23.400;2023-06-10T06:00:58;94642.88;;;18.83;81.17
22651;BME280;11492;42.646;23.400;2023-06-10T06:03:24;94640.69;;;18.91;79.95
22651;BME280;11492;42.646;23.400;2023-06-10T06:05:49;94652.19;;;19.06;81.10
22651;BME280;11492;42.646;23.400;2023-06-10T06:08:15;94649.41;;;19.29;79.96
22651;BME280;11492;42.646;23.400;2023-06-10T06:10:44;94646.47;;;19.42;78.38
22651;BME280;11492;42.646;23.400;2023-06-10T06:13:10;94646.75;;;19.45;78.67
22651;BME280;11492;42.646;23.400;2023-06-10T06:15:35;94648.13;;;19.48;78.03
22651;BME280;11492;42.646;23.400;2023-06-10T06:18:00;94642.38;;;19.67;78.49
22651;BME280;11492;42.646;23.400;2023-06-10T06:20:26;94640.75;;;19.82;78.46
22651;BME280;11492;42.646;23.400;2023-06-10T06:22:51;94643.25;;;19.93;78.98
22651;BME280;11492;42.646;23.400;2023-06-10T06:25:17;94637.31;;;20.02;79.34
22651;BME280;11492;42.646;23.400;2023-06-10T06:27:42;94630.94;;;20.15;78.11
22651;BME280;11492;42.646;23.400;2023-06-10T06:30:08;94638.13;;;20.24;77.57
22651;BME280;11492;42.646;23.400;2023-06-10T06:32:34;94642.13;;;20.31;76.85
22651;BME280;11492;42.646;23.400;2023-06-10T06:34:59;94637.25;;;20.40;76.93
22651;BME280;11492;42.646;23.400;2023-06-10T06:37:25;94638.41;;;20.48;77.21
22651;BME280;11492;42.646;23.400;2023-06-10T06:39:51;94643.66;;;20.48;77.25
22651;BME280;11492;42.646;23.400;2023-06-10T06:42:17;94632.16;;;20.49;76.71
22651;BME280;11492;42.646;23.400;2023-06-10T06:44:43;94640.03;;;20.54;76.26
22651;BME280;11492;42.646;23.400;2023-06-10T06:47:08;94635.94;;;20.63;76.42
22651;BME280;11492;42.646;23.400;2023-06-10T06:49:34;94629.09;;;20.62;75.84
22651;BME280;11492;42.646;23.400;2023-06-10T06:52:00;94634.94;;;20.69;75.65
22651;BME280;11492;42.646;23.400;2023-06-10T06:54:25;94630.09;;;20.82;75.39
22651;BME280;11492;42.646;23.400;2023-06-10T06:56:50;94632.94;;;20.76;75.10
22651;BME280;11492;42.646;23.400;2023-06-10T06:59:16;94628.75;;;20.54;74.91
22651;BME280;11492;42.646;23.400;2023-06-10T07:01:44;94620.59;;;20.50;76.03
22651;BME280;11492;42.646;23.400;2023-06-10T07:04:09;94632.34;;;20.74;75.77
22651;BME280;11492;42.646;23.400;2023-06-10T07:06:35;94626.75;;;20.92;74.53
22651;BME280;11492;42.646;23.400;2023-06-10T07:09:01;94618.38;;;20.95;74.30
22651;BME280;11492;42.646;23.400;2023-06-10T07:11:27;94627.94;;;21.10;74.09
22651;BME280;11492;42.646;23.400;2023-06-10T07:13:52;94624.66;;;21.24;73.48
22651;BME280;11492;42.646;23.400;2023-06-10T07:16:18;94630.88;;;21.45;72.49
22651;BME280;11492;42.646;23.400;2023-06-10T07:18:46;94623.56;;;21.56;70.73
22651;BME280;11492;42.646;23.400;2023-06-10T07:21:11;94615.81;;;21.81;70.14
22651;BME280;11492;42.646;23.400;2023-06-10T07:23:36;94613.84;;;22.02;68.77
22651;BME280;11492;42.646;23.400;2023-06-10T07:26:02;94610.19;;;22.08;67.02
22651;BME280;11492;42.646;23.400;2023-06-10T07:28:27;94609.16;;;22.14;67.23
22651;BME280;11492;42.646;23.400;2023-06-10T07:30:53;94603.94;;;22.29;67.32
22651;BME280;11492;42.646;23.400;2023-06-10T07:33:18;94610.59;;;22.61;67.38
22651;BME280;11492;42.646;23.400;2023-06-10T07:35:44;94608.31;;;22.94;67.36
22651;BME280;11492;42.646;23.400;2023-06-10T07:38:09;94608.28;;;23.18;65.54
22651;BME280;11492;42.646;23.400;2023-06-10T07:40:35;94613.28;;;23.44;65.44
22651;BME280;11492;42.646;23.400;2023-06-10T07:43:00;94605.13;;;23.55;63.45
22651;BME280;11492;42.646;23.400;2023-06-10T07:45:25;94605.06;;;23.75;62.85
22651;BME280;11492;42.646;23.400;2023-06-10T07:47:52;94603.13;;;23.95;63.02
22651;BME280;11492;42.646;23.400;2023-06-10T07:50:18;94609.19;;;24.05;62.02
22651;BME280;11492;42.646;23.400;2023-06-10T07:52:43;94604.94;;;24.09;61.71
22651;BME280;11492;42.646;23.400;2023-06-10T07:55:09;94609.63;;;24.27;61.38
22651;BME280;11492;42.646;23.400;2023-06-10T07:57:34;94609.53;;;24.47;58.44
22651;BME280;11492;42.646;23.400;2023-06-10T08:00:02;94611.84;;;24.58;57.31
22651;BME280;11492;42.646;23.400;2023-06-10T08:02:29;94611.84;;;25.05;55.92
22651;BME280;11492;42.646;23.400;2023-06-10T08:04:55;94611.84;;;25.05;55.25
22651;BME280;11492;42.646;23.400;2023-06-10T08:07:21;94619.91;;;25.19;54.65
22651;BME280;11492;42.646;23.400;2023-06-10T08:09:47;94607.63;;;25.65;54.22
22651;BME280;11492;42.646;23.400;2023-06-10T08:12:13;94609.66;;;25.73;51.48
22651;BME280;11492;42.646;23.400;2023-06-10T08:14:38;94602.19;;;26.26;49.15
22651;BME280;11492;42.646;23.400;2023-06-10T08:17:04;94607.13;;;26.74;48.44
22651;BME280;11492;42.646;23.400;2023-06-10T08:19:31;94599.81;;;27.38;47.02
22651;BME280;11492;42.646;23.400;2023-06-10T08:21:56;94597.69;;;27.67;45.83
22651;BME280;11492;42.646;23.400;2023-06-10T08:24:22;94600.50;;;27.88;44.70
22651;BME280;11492;42.646;23.400;2023-06-10T08:26:47;94601.59;;;28.14;43.49
22651;BME280;11492;42.646;23.400;2023-06-10T08:29:13;94589.88;;;28.15;42.55
22651;BME280;11492;42.646;23.400;2023-06-10T08:31:43;94596.97;;;28.19;43.31
22651;BME280;11492;42.646;23.400;2023-06-10T08:34:09;94592.41;;;27.80;43.25
22651;BME280;11492;42.646;23.400;2023-06-10T08:36:35;94592.31;;;27.40;42.73
22651;BME280;11492;42.646;23.400;2023-06-10T08:39:01;94591.63;;;27.17;43.92
22651;BME280;11492;42.646;23.400;2023-06-10T08:41:28;94589.38;;;27.42;43.37
22651;BME280;11492;42.646;23.400;2023-06-10T08:44:17;94594.63;;;27.60;42.10
22651;BME280;11492;42.646;23.400;2023-06-10T08:46:47;94584.97;;;27.95;40.50
22651;BME280;11492;42.646;23.400;2023-06-10T08:49:18;94587.31;;;28.23;41.41
22651;BME280;11492;42.646;23.400;2023-06-10T08:51:49;94576.69;;;28.23;39.03
22651;BME280;11492;42.646;23.400;2023-06-10T08:54:18;94577.47;;;28.37;39.77
22651;BME280;11492;42.646;23.400;2023-06-10T08:56:49;94576.59;;;28.55;38.64
22651;BME280;11492;42.646;23.400;2023-06-10T08:59:15;94579.41;;;28.71;39.09
22651;BME280;11492;42.646;23.400;2023-06-10T09:01:42;94577.53;;;28.72;38.25
22651;BME280;11492;42.646;23.400;2023-06-10T09:04:08;94571.56;;;28.53;38.41
22651;BME280;11492;42.646;23.400;2023-06-10T09:06:34;94569.53;;;28.85;38.39
22651;BME280;11492;42.646;23.400;2023-06-10T09:09:02;94565.94;;;29.24;37.15
22651;BME280;11492;42.646;23.400;2023-06-10T09:11:28;94561.44;;;29.55;37.31
22651;BME280;11492;42.646;23.400;2023-06-10T09:13:53;94550.97;;;29.88;38.24
22651;BME280;11492;42.646;23.400;2023-06-10T09:16:19;94555.34;;;30.22;37.53
22651;BME280;11492;42.646;23.400;2023-06-10T09:18:44;94558.22;;;30.34;36.51
22651;BME280;11492;42.646;23.400;2023-06-10T09:21:10;94557.31;;;30.55;36.56
22651;BME280;11492;42.646;23.400;2023-06-10T09:23:37;94554.84;;;30.83;35.47
22651;BME280;11492;42.646;23.400;2023-06-10T09:26:02;94550.78;;;30.86;35.52
22651;BME280;11492;42.646;23.400;2023-06-10T09:28:30;94552.81;;;30.64;34.79
22651;BME280;11492;42.646;23.400;2023-06-10T09:31:06;94548.94;;;30.23;34.02
22651;BME280;11492;42.646;23.400;2023-06-10T09:33:32;94535.59;;;30.23;34.71
22651;BME280;11492;42.646;23.400;2023-06-10T09:35:57;94551.88;;;30.13;35.18
22651;BME280;11492;42.646;23.400;2023-06-10T09:38:30;94545.84;;;30.00;34.70
22651;BME280;11492;42.646;23.400;2023-06-10T09:40:57;94548.63;;;30.25;36.13
22651;BME280;11492;42.646;23.400;2023-06-10T09:43:22;94541.25;;;30.30;35.43
22651;BME280;11492;42.646;23.400;2023-06-10T09:45:51;94546.94;;;29.60;37.00
22651;BME280;11492;42.646;23.400;2023-06-10T09:48:21;94539.22;;;29.59;36.97
22651;BME280;11492;42.646;23.400;2023-06-10T09:50:49;94543.16;;;29.91;35.82
22651;BME280;11492;42.646;23.400;2023-06-10T09:53:17;94547.59;;;30.04;34.92
22651;BME280;11492;42.646;23.400;2023-06-10T09:55:43;94537.16;;;29.86;35.87
22651;BME280;11492;42.646;23.400;2023-06-10T09:58:09;94543.00;;;29.58;36.26
22651;BME280;11492;42.646;23.400;2023-06-10T10:00:34;94527.47;;;29.60;35.98
22651;BME280;11492;42.646;23.400;2023-06-10T10:03:00;94526.22;;;29.96;35.98
22651;BME280;11492;42.646;23.400;2023-06-10T10:05:26;94528.09;;;30.33;36.40
22651;BME280;11492;42.646;23.400;2023-06-10T10:07:52;94527.38;;;30.66;35.65
22651;BME280;11492;42.646;23.400;2023-06-10T10:10:20;94524.72;;;30.83;34.84
22651;BME280;11492;42.646;23.400;2023-06-10T10:12:51;94516.69;;;31.08;34.81
22651;BME280;11492;42.646;23.400;2023-06-10T10:15:19;94510.56;;;31.24;33.72
22651;BME280;11492;42.646;23.400;2023-06-10T10:17:53;94514.47;;;31.35;33.52
22651;BME280;11492;42.646;23.400;2023-06-10T10:20:25;94501.38;;;31.58;35.18
22651;BME280;11492;42.646;23.400;2023-06-10T10:22:52;94507.53;;;31.67;33.60
22651;BME280;11492;42.646;23.400;2023-06-10T10:25:24;94509.34;;;31.84;31.98
22651;BME280;11492;42.646;23.400;2023-06-10T10:30:30;94507.91;;;32.23;30.97
22651;BME280;11492;42.646;23.400;2023-06-10T10:33:04;94502.44;;;32.19;31.18
22651;BME280;11492;42.646;23.400;2023-06-10T10:35:32;94508.19;;;32.30;31.52
22651;BME280;11492;42.646;23.400;2023-06-10T10:37:58;94505.31;;;32.55;31.87
22651;BME280;11492;42.646;23.400;2023-06-10T10:40:25;94504.06;;;32.81;31.97
22651;BME280;11492;42.646;23.400;2023-06-10T10:42:52;94504.44;;;32.91;30.22
22651;BME280;11492;42.646;23.400;2023-06-10T10:45:18;94498.56;;;32.57;30.34
22651;BME280;11492;42.646;23.400;2023-06-10T10:47:45;94497.50;;;32.50;31.28
22651;BME280;11492;42.646;23.400;2023-06-10T10:50:15;94502.06;;;32.78;31.22
22651;BME280;11492;42.646;23.400;2023-06-10T10:55:22;94490.25;;;33.10;30.86
22651;BME280;11492;42.646;23.400;2023-06-10T10:58:05;94493.28;;;32.89;30.62
22651;BME280;11492;42.646;23.400;2023-06-10T11:00:35;94484.28;;;32.73;30.70
22651;BME280;11492;42.646;23.400;2023-06-10T11:03:07;94486.28;;;32.56;31.28
22651;BME280;11492;42.646;23.400;2023-06-10T11:05:42;94481.00;;;32.48;31.59
22651;BME280;11492;42.646;23.400;2023-06-10T11:08:10;94475.81;;;32.71;32.72
22651;BME280;11492;42.646;23.400;2023-06-10T11:10:40;94473.09;;;32.91;31.65
22651;BME280;11492;42.646;23.400;2023-06-10T11:13:15;94473.03;;;32.59;32.09
22651;BME280;11492;42.646;23.400;2023-06-10T11:15:45;94473.22;;;32.55;32.63
22651;BME280;11492;42.646;23.400;2023-06-10T11:18:13;94468.78;;;32.38;32.51
22651;BME280;11492;42.646;23.400;2023-06-10T11:31:19;94444.78;;;31.73;31.84
22651;BME280;11492;42.646;23.400;2023-06-10T11:33:47;94443.00;;;32.06;31.95
22651;BME280;11492;42.646;23.400;2023-06-10T11:36:13;94444.50;;;32.43;33.33
22651;BME280;11492;42.646;23.400;2023-06-10T11:38:38;94439.13;;;32.72;31.58
22651;BME280;11492;42.646;23.400;2023-06-10T11:41:05;94433.66;;;32.60;30.84
22651;BME280;11492;42.646;23.400;2023-06-10T11:43:31;94439.72;;;32.29;31.71
22651;BME280;11492;42.646;23.400;2023-06-10T11:45:56;94438.25;;;31.83;32.24
22651;BME280;11492;42.646;23.400;2023-06-10T11:48:22;94439.41;;;31.36;31.08
22651;BME280;11492;42.646;23.400;2023-06-10T11:50:47;94433.50;;;30.98;32.57
22651;BME280;11492;42.646;23.400;2023-06-10T11:53:13;94426.06;;;31.20;32.56
22651;BME280;11492;42.646;23.400;2023-06-10T11:55:45;94430.44;;;31.78;31.44
22651;BME280;11492;42.646;23.400;2023-06-10T11:58:18;94433.19;;;31.89;30.30
22651;BME280;11492;42.646;23.400;2023-06-10T12:00:55;94424.28;;;31.77;30.70
22651;BME280;11492;42.646;23.400;2023-06-10T12:03:24;94426.59;;;31.87;31.07
22651;BME280;11492;42.646;23.400;2023-06-10T12:06:01;94429.50;;;32.02;31.95
22651;BME280;11492;42.646;23.400;2023-06-10T12:08:28;94419.75;;;31.98;31.40
22651;BME280;11492;42.646;23.400;2023-06-10T12:10:54;94416.06;;;31.90;31.90
22651;BME280;11492;42.646;23.400;2023-06-10T12:13:20;94422.28;;;31.74;30.42
22651;BME280;11492;42.646;23.400;2023-06-10T12:15:47;94415.53;;;31.32;30.93
22651;BME280;11492;42.646;23.400;2023-06-10T12:18:20;94421.69;;;30.99;32.80
22651;BME280;11492;42.646;23.400;2023-06-10T12:20:46;94419.06;;;30.74;33.37
22651;BME280;11492;42.646;23.400;2023-06-10T12:23:12;94415.16;;;30.63;34.56
22651;BME280;11492;42.646;23.400;2023-06-10T12:25:38;94413.28;;;30.63;32.97
22651;BME280;11492;42.646;23.400;2023-06-10T12:28:05;94419.41;;;30.72;32.02
22651;BME280;11492;42.646;23.400;2023-06-10T12:30:32;94412.00;;;30.53;32.58
22651;BME280;11492;42.646;23.400;2023-06-10T12:32:58;94411.69;;;30.46;32.15
22651;BME280;11492;42.646;23.400;2023-06-10T12:35:26;94406.22;;;30.51;32.24
22651;BME280;11492;42.646;23.400;2023-06-10T12:38:09;94414.81;;;30.48;32.01
22651;BME280;11492;42.646;23.400;2023-06-10T12:40:38;94399.78;;;30.68;32.24
22651;BME280;11492;42.646;23.400;2023-06-10T12:43:05;94398.84;;;30.81;31.68
22651;BME280;11492;42.646;23.400;2023-06-10T12:45:33;94390.22;;;30.34;32.35
22651;BME280;11492;42.646;23.400;2023-06-10T12:48:21;94384.56;;;30.10;32.69
22651;BME280;11492;42.646;23.400;2023-06-10T12:50:53;94387.66;;;30.04;33.11
22651;BME280;11492;42.646;23.400;2023-06-10T12:53:19;94378.59;;;29.97;33.22
22651;BME280;11492;42.646;23.400;2023-06-10T12:55:45;94387.78;;;29.91;33.76
22651;BME280;11492;42.646;23.400;2023-06-10T12:58:11;94391.09;;;29.96;32.24
22651;BME280;11492;42.646;23.400;2023-06-10T13:00:37;94389.38;;;29.92;32.41
22651;BME280;11492;42.646;23.400;2023-06-10T13:03:03;94399.38;;;29.78;32.26
22651;BME280;11492;42.646;23.400;2023-06-10T13:05:31;94393.69;;;29.55;32.80
22651;BME280;11492;42.646;23.400;2023-06-10T13:07:57;94388.28;;;29.38;32.85
22651;BME280;11492;42.646;23.400;2023-06-10T13:10:23;94389.63;;;29.27;33.19
22651;BME280;11492;42.646;23.400;2023-06-10T13:12:49;94387.06;;;29.06;33.79